sensor_id;sensor_type;location;lat;lon;timestamp;P1;durP1;ratioP1;P2;durP2;ratioP2
6013;SDS011;3035;49.928;8.410;2024-02-21T00:00:10;12.00;;;4.07;;
6013;SDS011;3035;49.928;8.410;2024-02-21T00:02:38;14.83;;;4.47;;
6013;SDS011;3035;49.928;8.410;2024-02-21T00:05:05;13.20;;;4.40;;
6013;SDS011;3035;49.928;8.410;2024-02-21T00:07:33;11.10;;;3.47;;
6013;SDS011;3035;49.928;8.410;2024-02-21T00:10:00;12.93;;;4.53;;
6013;SDS011;3035;49.928;8.410;2024-02-21T00:12:28;9.30;;;4.07;;
6013;SDS011;3035;49.928;8.410;2024-02-21T00:14:55;10.80;;;4.20;;
6013;SDS011;3035;49.928;8.410;2024-02-21T00:17:23;19.17;;;4.87;;
6013;SDS011;3035;49.928;8.410;2024-02-21T00:19:50;9.50;;;4.70;;
6013;SDS011;3035;49.928;8.410;2024-02-21T00:22:17;12.20;;;4.60;;
6013;SDS011;3035;49.928;8.410;2024-02-21T00:24:45;16.40;;;4.63;;
6013;SDS011;3035;49.928;8.410;2024-02-21T00:27:12;11.40;;;4.83;;
6013;SDS011;3035;49.928;8.410;2024-02-21T00:29:40;13.90;;;4.30;;
6013;SDS011;3035;49.928;8.410;2024-02-21T00:32:07;17.37;;;5.30;;
6013;SDS011;3035;49.928;8.410;2024-02-21T00:34:35;10.43;;;5.30;;
6013;SDS011;3035;49.928;8.410;2024-02-21T00:37:02;12.00;;;4.53;;
6013;SDS011;3035;49.928;8.410;2024-02-21T00:39:30;11.10;;;5.30;;
6013;SDS011;3035;49.928;8.410;2024-02-21T00:41:57;14.97;;;5.40;;
6013;SDS011;3035;49.928;8.410;2024-02-21T00:44:24;15.03;;;4.57;;
6013;SDS011;3035;49.928;8.410;2024-02-21T00:46:52;17.13;;;5.50;;
6013;SDS011;3035;49.928;8.410;2024-02-21T00:49:19;19.33;;;5.60;;
6013;SDS011;3035;49.928;8.410;2024-02-21T00:51:47;17.00;;;6.30;;
6013;SDS011;3035;49.928;8.410;2024-02-21T00:54:14;21.73;;;5.60;;
6013;SDS011;3035;49.928;8.410;2024-02-21T00:56:42;15.60;;;5.40;;
6013;SDS011;3035;49.928;8.410;2024-02-21T00:59:09;15.87;;;5.40;;
6013;SDS011;3035;49.928;8.410;2024-02-21T01:01:36;19.20;;;5.93;;
6013;SDS011;3035;49.928;8.410;2024-02-21T01:04:04;16.87;;;5.77;;
6013;SDS011;3035;49.928;8.410;2024-02-21T01:06:31;20.23;;;6.67;;
6013;SDS011;3035;49.928;8.410;2024-02-21T01:08:59;10.97;;;5.77;;
6013;SDS011;3035;49.928;8.410;2024-02-21T01:11:26;11.53;;;6.40;;
6013;SDS011;3035;49.928;8.410;2024-02-21T01:13:54;20.07;;;6.63;;
6013;SDS011;3035;49.928;8.410;2024-02-21T01:16:21;17.57;;;5.73;;
6013;SDS011;3035;49.928;8.410;2024-02-21T01:18:49;15.77;;;6.77;;
6013;SDS011;3035;49.928;8.410;2024-02-21T01:21:16;17.60;;;6.53;;
6013;SDS011;3035;49.928;8.410;2024-02-21T01:23:43;19.23;;;7.53;;
6013;SDS011;3035;49.928;8.410;2024-02-21T01:26:11;12.07;;;5.93;;
6013;SDS011;3035;49.928;8.410;2024-02-21T01:28:38;12.53;;;6.10;;
6013;SDS011;3035;49.928;8.410;2024-02-21T01:31:06;14.43;;;6.50;;
6013;SDS011;3035;49.928;8.410;2024-02-21T01:33:33;13.20;;;5.57;;
6013;SDS011;3035;49.928;8.410;2024-02-21T01:36:01;14.77;;;5.97;;
6013;SDS011;3035;49.928;8.410;2024-02-21T01:38:28;10.13;;;5.10;;
6013;SDS011;3035;49.928;8.410;2024-02-21T01:40:55;17.37;;;5.53;;
6013;SDS011;3035;49.928;8.410;2024-02-21T01:43:23;15.53;;;5.63;;
6013;SDS011;3035;49.928;8.410;2024-02-21T01:45:52;21.80;;;7.10;;
6013;SDS011;3035;49.928;8.410;2024-02-21T01:48:19;12.60;;;5.80;;
6013;SDS011;3035;49.928;8.410;2024-02-21T01:50:46;16.20;;;6.60;;
6013;SDS011;3035;49.928;8.410;2024-02-21T01:53:14;13.73;;;6.70;;
6013;SDS011;3035;49.928;8.410;2024-02-21T01:55:42;22.03;;;5.50;;
6013;SDS011;3035;49.928;8.410;2024-02-21T01:58:09;10.83;;;6.67;;
6013;SDS011;3035;49.928;8.410;2024-02-21T02:00:37;16.03;;;5.90;;
6013;SDS011;3035;49.928;8.410;2024-02-21T02:03:04;12.47;;;6.17;;
6013;SDS011;3035;49.928;8.410;2024-02-21T02:05:32;11.37;;;5.50;;
6013;SDS011;3035;49.928;8.410;2024-02-21T02:07:59;16.27;;;5.47;;
6013;SDS011;3035;49.928;8.410;2024-02-21T02:10:26;15.63;;;6.30;;
6013;SDS011;3035;49.928;8.410;2024-02-21T02:12:54;13.30;;;6.40;;
6013;SDS011;3035;49.928;8.410;2024-02-21T02:15:21;13.43;;;6.30;;
6013;SDS011;3035;49.928;8.410;2024-02-21T02:17:49;20.40;;;5.90;;
6013;SDS011;3035;49.928;8.410;2024-02-21T02:20:16;13.70;;;6.00;;
6013;SDS011;3035;49.928;8.410;2024-02-21T02:22:43;13.73;;;6.50;;
6013;SDS011;3035;49.928;8.410;2024-02-21T02:25:11;17.33;;;6.20;;
6013;SDS011;3035;49.928;8.410;2024-02-21T02:27:42;13.50;;;5.77;;
6013;SDS011;3035;49.928;8.410;2024-02-21T02:30:09;17.83;;;7.10;;
6013;SDS011;3035;49.928;8.410;2024-02-21T02:32:37;25.07;;;6.20;;
6013;SDS011;3035;49.928;8.410;2024-02-21T02:35:05;14.83;;;7.30;;
6013;SDS011;3035;49.928;8.410;2024-02-21T02:37:32;15.27;;;6.00;;
6013;SDS011;3035;49.928;8.410;2024-02-21T02:39:59;14.87;;;6.80;;
6013;SDS011;3035;49.928;8.410;2024-02-21T02:42:27;15.97;;;5.60;;
6013;SDS011;3035;49.928;8.410;2024-02-21T02:44:54;17.47;;;5.97;;
6013;SDS011;3035;49.928;8.410;2024-02-21T02:47:22;12.27;;;6.23;;
6013;SDS011;3035;49.928;8.410;2024-02-21T02:49:49;17.53;;;6.37;;
6013;SDS011;3035;49.928;8.410;2024-02-21T02:52:17;20.10;;;6.50;;
6013;SDS011;3035;49.928;8.410;2024-02-21T02:54:44;8.47;;;5.00;;
6013;SDS011;3035;49.928;8.410;2024-02-21T02:57:12;21.07;;;6.40;;
6013;SDS011;3035;49.928;8.410;2024-02-21T02:59:39;17.63;;;7.47;;
6013;SDS011;3035;49.928;8.410;2024-02-21T03:02:07;11.77;;;5.53;;
6013;SDS011;3035;49.928;8.410;2024-02-21T03:04:34;14.93;;;6.27;;
6013;SDS011;3035;49.928;8.410;2024-02-21T03:07:01;19.57;;;6.77;;
6013;SDS011;3035;49.928;8.410;2024-02-21T03:09:29;14.13;;;6.57;;
6013;SDS011;3035;49.928;8.410;2024-02-21T03:11:56;15.63;;;7.33;;
6013;SDS011;3035;49.928;8.410;2024-02-21T03:14:24;17.73;;;6.37;;
6013;SDS011;3035;49.928;8.410;2024-02-21T03:16:51;13.57;;;6.50;;
6013;SDS011;3035;49.928;8.410;2024-02-21T03:19:19;13.50;;;6.60;;
6013;SDS011;3035;49.928;8.410;2024-02-21T03:21:46;11.00;;;5.97;;
6013;SDS011;3035;49.928;8.410;2024-02-21T03:24:13;14.20;;;7.67;;
6013;SDS011;3035;49.928;8.410;2024-02-21T03:26:41;15.97;;;6.70;;
6013;SDS011;3035;49.928;8.410;2024-02-21T03:29:10;22.87;;;6.57;;
6013;SDS011;3035;49.928;8.410;2024-02-21T03:31:36;16.90;;;6.33;;
6013;SDS011;3035;49.928;8.410;2024-02-21T03:34:03;22.80;;;8.10;;
6013;SDS011;3035;49.928;8.410;2024-02-21T03:36:31;12.50;;;6.53;;
6013;SDS011;3035;49.928;8.410;2024-02-21T03:38:58;16.07;;;6.00;;
6013;SDS011;3035;49.928;8.410;2024-02-21T03:41:26;27.70;;;8.13;;
6013;SDS011;3035;49.928;8.410;2024-02-21T03:43:53;19.57;;;8.50;;
6013;SDS011;3035;49.928;8.410;2024-02-21T03:46:20;19.20;;;6.53;;
6013;SDS011;3035;49.928;8.410;2024-02-21T03:48:48;14.50;;;7.20;;
6013;SDS011;3035;49.928;8.410;2024-02-21T03:51:15;14.40;;;6.80;;
6013;SDS011;3035;49.928;8.410;2024-02-21T03:53:43;16.63;;;7.00;;
6013;SDS011;3035;49.928;8.410;2024-02-21T03:56:10;18.57;;;7.70;;
6013;SDS011;3035;49.928;8.410;2024-02-21T03:58:38;17.70;;;7.80;;
6013;SDS011;3035;49.928;8.410;2024-02-21T04:01:05;15.70;;;6.50;;
6013;SDS011;3035;49.928;8.410;2024-02-21T04:03:32;15.07;;;7.10;;
6013;SDS011;3035;49.928;8.410;2024-02-21T04:06:00;12.53;;;6.70;;
6013;SDS011;3035;49.928;8.410;2024-02-21T04:08:27;22.77;;;6.60;;
6013;SDS011;3035;49.928;8.410;2024-02-21T04:10:55;21.03;;;7.63;;
6013;SDS011;3035;49.928;8.410;2024-02-21T04:13:22;14.87;;;7.53;;
6013;SDS011;3035;49.928;8.410;2024-02-21T04:15:50;16.57;;;7.93;;
6013;SDS011;3035;49.928;8.410;2024-02-21T04:18:17;13.53;;;5.60;;
6013;SDS011;3035;49.928;8.410;2024-02-21T04:20:45;18.33;;;5.43;;
6013;SDS011;3035;49.928;8.410;2024-02-21T04:23:12;14.73;;;6.23;;
6013;SDS011;3035;49.928;8.410;2024-02-21T04:25:39;12.40;;;5.80;;
6013;SDS011;3035;49.928;8.410;2024-02-21T04:28:07;11.00;;;5.47;;
6013;SDS011;3035;49.928;8.410;2024-02-21T04:30:34;13.60;;;6.10;;
6013;SDS011;3035;49.928;8.410;2024-02-21T04:33:02;13.80;;;6.07;;
6013;SDS011;3035;49.928;8.410;2024-02-21T04:35:29;17.47;;;7.03;;
6013;SDS011;3035;49.928;8.410;2024-02-21T04:37:57;19.37;;;6.40;;
6013;SDS011;3035;49.928;8.410;2024-02-21T04:40:24;16.53;;;5.90;;
6013;SDS011;3035;49.928;8.410;2024-02-21T04:42:52;18.80;;;6.33;;
6013;SDS011;3035;49.928;8.410;2024-02-21T04:45:19;12.43;;;5.97;;
6013;SDS011;3035;49.928;8.410;2024-02-21T04:47:46;11.13;;;6.10;;
6013;SDS011;3035;49.928;8.410;2024-02-21T04:50:14;12.10;;;5.53;;
6013;SDS011;3035;49.928;8.410;2024-02-21T04:52:42;12.60;;;5.50;;
6013;SDS011;3035;49.928;8.410;2024-02-21T04:55:09;16.60;;;6.30;;
6013;SDS011;3035;49.928;8.410;2024-02-21T04:57:36;8.70;;;5.90;;
6013;SDS011;3035;49.928;8.410;2024-02-21T05:00:04;9.70;;;5.60;;
6013;SDS011;3035;49.928;8.410;2024-02-21T05:02:32;16.53;;;6.43;;
6013;SDS011;3035;49.928;8.410;2024-02-21T05:05:00;17.83;;;5.67;;
6013;SDS011;3035;49.928;8.410;2024-02-21T05:07:27;14.50;;;5.57;;
6013;SDS011;3035;49.928;8.410;2024-02-21T05:09:54;15.87;;;6.30;;
6013;SDS011;3035;49.928;8.410;2024-02-21T05:12:22;10.80;;;5.80;;
6013;SDS011;3035;49.928;8.410;2024-02-21T05:14:49;14.93;;;5.00;;
6013;SDS011;3035;49.928;8.410;2024-02-21T05:17:17;13.23;;;6.07;;
6013;SDS011;3035;49.928;8.410;2024-02-21T05:19:44;15.17;;;6.27;;
6013;SDS011;3035;49.928;8.410;2024-02-21T05:22:12;13.83;;;6.73;;
6013;SDS011;3035;49.928;8.410;2024-02-21T05:24:39;16.83;;;6.30;;
6013;SDS011;3035;49.928;8.410;2024-02-21T05:27:07;16.70;;;6.70;;
6013;SDS011;3035;49.928;8.410;2024-02-21T05:29:34;13.00;;;5.57;;
6013;SDS011;3035;49.928;8.410;2024-02-21T05:32:02;18.87;;;5.77;;
6013;SDS011;3035;49.928;8.410;2024-02-21T05:34:29;17.63;;;6.83;;
6013;SDS011;3035;49.928;8.410;2024-02-21T05:36:57;29.67;;;6.77;;
6013;SDS011;3035;49.928;8.410;2024-02-21T05:39:24;15.73;;;5.50;;
6013;SDS011;3035;49.928;8.410;2024-02-21T05:41:52;12.37;;;6.33;;
6013;SDS011;3035;49.928;8.410;2024-02-21T05:44:19;16.27;;;6.17;;
6013;SDS011;3035;49.928;8.410;2024-02-21T05:46:47;16.67;;;6.63;;
6013;SDS011;3035;49.928;8.410;2024-02-21T05:49:14;12.63;;;6.20;;
6013;SDS011;3035;49.928;8.410;2024-02-21T05:51:42;14.13;;;6.27;;
6013;SDS011;3035;49.928;8.410;2024-02-21T05:54:09;19.73;;;6.43;;
6013;SDS011;3035;49.928;8.410;2024-02-21T05:56:36;14.03;;;5.77;;
6013;SDS011;3035;49.928;8.410;2024-02-21T05:59:04;19.47;;;5.60;;
6013;SDS011;3035;49.928;8.410;2024-02-21T06:01:31;11.23;;;5.80;;
6013;SDS011;3035;49.928;8.410;2024-02-21T06:03:59;18.87;;;7.13;;
6013;SDS011;3035;49.928;8.410;2024-02-21T06:06:26;18.77;;;6.00;;
6013;SDS011;3035;49.928;8.410;2024-02-21T06:08:54;21.17;;;6.33;;
6013;SDS011;3035;49.928;8.410;2024-02-21T06:11:21;15.40;;;6.43;;
6013;SDS011;3035;49.928;8.410;2024-02-21T06:13:49;17.13;;;6.17;;
6013;SDS011;3035;49.928;8.410;2024-02-21T06:16:16;11.70;;;6.53;;
6013;SDS011;3035;49.928;8.410;2024-02-21T06:18:43;12.80;;;5.53;;
6013;SDS011;3035;49.928;8.410;2024-02-21T06:21:11;17.80;;;7.10;;
6013;SDS011;3035;49.928;8.410;2024-02-21T06:23:38;22.83;;;6.27;;
6013;SDS011;3035;49.928;8.410;2024-02-21T06:26:06;11.60;;;5.50;;
6013;SDS011;3035;49.928;8.410;2024-02-21T06:28:33;13.70;;;5.70;;
6013;SDS011;3035;49.928;8.410;2024-02-21T06:31:01;18.70;;;6.37;;
6013;SDS011;3035;49.928;8.410;2024-02-21T06:33:28;14.97;;;5.83;;
6013;SDS011;3035;49.928;8.410;2024-02-21T06:35:55;18.67;;;6.13;;
6013;SDS011;3035;49.928;8.410;2024-02-21T06:38:23;22.20;;;7.07;;
6013;SDS011;3035;49.928;8.410;2024-02-21T06:40:50;19.63;;;7.33;;
6013;SDS011;3035;49.928;8.410;2024-02-21T06:43:18;16.07;;;7.17;;
6013;SDS011;3035;49.928;8.410;2024-02-21T06:45:45;12.43;;;5.97;;
6013;SDS011;3035;49.928;8.410;2024-02-21T06:48:13;13.73;;;5.53;;
6013;SDS011;3035;49.928;8.410;2024-02-21T06:50:41;14.30;;;5.90;;
6013;SDS011;3035;49.928;8.410;2024-02-21T06:53:08;11.33;;;5.00;;
6013;SDS011;3035;49.928;8.410;2024-02-21T06:55:35;11.43;;;5.03;;
6013;SDS011;3035;49.928;8.410;2024-02-21T06:58:03;10.90;;;4.90;;
6013;SDS011;3035;49.928;8.410;2024-02-21T07:00:30;11.93;;;4.90;;
6013;SDS011;3035;49.928;8.410;2024-02-21T07:02:58;15.83;;;4.60;;
6013;SDS011;3035;49.928;8.410;2024-02-21T07:05:25;11.13;;;3.90;;
6013;SDS011;3035;49.928;8.410;2024-02-21T07:07:53;19.77;;;4.60;;
6013;SDS011;3035;49.928;8.410;2024-02-21T07:10:20;11.40;;;4.40;;
6013;SDS011;3035;49.928;8.410;2024-02-21T07:12:47;10.80;;;4.87;;
6013;SDS011;3035;49.928;8.410;2024-02-21T07:15:15;13.57;;;4.83;;
6013;SDS011;3035;49.928;8.410;2024-02-21T07:17:42;15.97;;;4.60;;
6013;SDS011;3035;49.928;8.410;2024-02-21T07:20:10;15.50;;;4.40;;
6013;SDS011;3035;49.928;8.410;2024-02-21T07:22:37;22.27;;;4.63;;
6013;SDS011;3035;49.928;8.410;2024-02-21T07:25:05;10.83;;;4.20;;
6013;SDS011;3035;49.928;8.410;2024-02-21T07:27:33;7.87;;;3.73;;
6013;SDS011;3035;49.928;8.410;2024-02-21T07:30:01;9.80;;;4.07;;
6013;SDS011;3035;49.928;8.410;2024-02-21T07:32:28;14.37;;;4.00;;
6013;SDS011;3035;49.928;8.410;2024-02-21T07:34:55;13.20;;;4.03;;
6013;SDS011;3035;49.928;8.410;2024-02-21T07:37:23;9.33;;;4.00;;
6013;SDS011;3035;49.928;8.410;2024-02-21T07:39:50;11.70;;;4.00;;
6013;SDS011;3035;49.928;8.410;2024-02-21T07:42:18;8.87;;;3.83;;
6013;SDS011;3035;49.928;8.410;2024-02-21T07:44:45;12.53;;;4.27;;
6013;SDS011;3035;49.928;8.410;2024-02-21T07:47:13;21.60;;;4.70;;
6013;SDS011;3035;49.928;8.410;2024-02-21T07:49:40;9.70;;;4.17;;
6013;SDS011;3035;49.928;8.410;2024-02-21T07:52:07;9.10;;;3.90;;
6013;SDS011;3035;49.928;8.410;2024-02-21T07:54:35;15.43;;;3.63;;
6013;SDS011;3035;49.928;8.410;2024-02-21T07:57:02;12.97;;;5.33;;
6013;SDS011;3035;49.928;8.410;2024-02-21T07:59:30;13.00;;;5.27;;
6013;SDS011;3035;49.928;8.410;2024-02-21T08:01:57;9.73;;;4.93;;
6013;SDS011;3035;49.928;8.410;2024-02-21T08:04:25;7.90;;;3.70;;
6013;SDS011;3035;49.928;8.410;2024-02-21T08:06:52;9.20;;;4.07;;
6013;SDS011;3035;49.928;8.410;2024-02-21T08:09:21;8.67;;;3.93;;
6013;SDS011;3035;49.928;8.410;2024-02-21T08:11:48;11.27;;;4.90;;
6013;SDS011;3035;49.928;8.410;2024-02-21T08:14:15;11.63;;;4.10;;
6013;SDS011;3035;49.928;8.410;2024-02-21T08:16:43;10.50;;;4.47;;
6013;SDS011;3035;49.928;8.410;2024-02-21T08:19:10;17.33;;;4.33;;
6013;SDS011;3035;49.928;8.410;2024-02-21T08:21:38;10.50;;;3.53;;
6013;SDS011;3035;49.928;8.410;2024-02-21T08:24:05;10.20;;;3.90;;
6013;SDS011;3035;49.928;8.410;2024-02-21T08:26:32;8.73;;;3.60;;
6013;SDS011;3035;49.928;8.410;2024-02-21T08:29:00;14.13;;;4.40;;
6013;SDS011;3035;49.928;8.410;2024-02-21T08:31:27;16.20;;;3.90;;
6013;SDS011;3035;49.928;8.410;2024-02-21T08:33:55;13.20;;;4.17;;
6013;SDS011;3035;49.928;8.410;2024-02-21T08:36:22;14.13;;;4.37;;
6013;SDS011;3035;49.928;8.410;2024-02-21T08:38:50;11.53;;;3.43;;
6013;SDS011;3035;49.928;8.410;2024-02-21T08:41:17;11.13;;;3.73;;
6013;SDS011;3035;49.928;8.410;2024-02-21T08:43:44;11.20;;;4.90;;
6013;SDS011;3035;49.928;8.410;2024-02-21T08:46:12;8.40;;;3.70;;
6013;SDS011;3035;49.928;8.410;2024-02-21T08:48:39;18.13;;;4.60;;
6013;SDS011;3035;49.928;8.410;2024-02-21T08:51:07;8.00;;;3.10;;
6013;SDS011;3035;49.928;8.410;2024-02-21T08:53:34;6.90;;;3.07;;
6013;SDS011;3035;49.928;8.410;2024-02-21T08:56:02;10.63;;;3.70;;
6013;SDS011;3035;49.928;8.410;2024-02-21T08:58:29;17.73;;;3.33;;
6013;SDS011;3035;49.928;8.410;2024-02-21T09:00:57;7.23;;;3.43;;
6013;SDS011;3035;49.928;8.410;2024-02-21T09:03:24;6.53;;;3.20;;
6013;SDS011;3035;49.928;8.410;2024-02-21T09:05:51;7.43;;;3.40;;
6013;SDS011;3035;49.928;8.410;2024-02-21T09:08:19;9.43;;;3.90;;
6013;SDS011;3035;49.928;8.410;2024-02-21T09:10:46;11.33;;;3.87;;
6013;SDS011;3035;49.928;8.410;2024-02-21T09:13:14;7.93;;;4.03;;
6013;SDS011;3035;49.928;8.410;2024-02-21T09:15:42;8.10;;;3.97;;
6013;SDS011;3035;49.928;8.410;2024-02-21T09:18:09;8.10;;;4.00;;
6013;SDS011;3035;49.928;8.410;2024-02-21T09:20:37;19.17;;;3.50;;
6013;SDS011;3035;49.928;8.410;2024-02-21T09:23:04;12.73;;;3.60;;
6013;SDS011;3035;49.928;8.410;2024-02-21T09:25:32;11.20;;;3.20;;
6013;SDS011;3035;49.928;8.410;2024-02-21T09:28:00;9.23;;;3.30;;
6013;SDS011;3035;49.928;8.410;2024-02-21T09:30:27;12.67;;;3.33;;
6013;SDS011;3035;49.928;8.410;2024-02-21T09:32:54;9.20;;;3.30;;
6013;SDS011;3035;49.928;8.410;2024-02-21T09:35:21;9.73;;;3.17;;
6013;SDS011;3035;49.928;8.410;2024-02-21T09:37:49;8.57;;;3.63;;
6013;SDS011;3035;49.928;8.410;2024-02-21T09:40:16;14.30;;;3.63;;
6013;SDS011;3035;49.928;8.410;2024-02-21T09:42:44;8.87;;;3.60;;
6013;SDS011;3035;49.928;8.410;2024-02-21T09:45:15;10.63;;;3.87;;
6013;SDS011;3035;49.928;8.410;2024-02-21T09:50:34;12.23;;;3.67;;
6013;SDS011;3035;49.928;8.410;2024-02-21T09:53:02;10.00;;;3.70;;
6013;SDS011;3035;49.928;8.410;2024-02-21T09:55:29;8.23;;;3.53;;
6013;SDS011;3035;49.928;8.410;2024-02-21T09:57:57;10.57;;;3.30;;
6013;SDS011;3035;49.928;8.410;2024-02-21T10:00:24;10.17;;;3.60;;
6013;SDS011;3035;49.928;8.410;2024-02-21T10:02:52;12.37;;;3.87;;
6013;SDS011;3035;49.928;8.410;2024-02-21T10:05:19;14.33;;;3.57;;
6013;SDS011;3035;49.928;8.410;2024-02-21T10:07:47;12.53;;;3.33;;
6013;SDS011;3035;49.928;8.410;2024-02-21T10:10:14;7.33;;;2.97;;
6013;SDS011;3035;49.928;8.410;2024-02-21T10:12:49;9.20;;;3.20;;
6013;SDS011;3035;49.928;8.410;2024-02-21T10:15:20;11.07;;;2.90;;
6013;SDS011;3035;49.928;8.410;2024-02-21T10:17:46;7.77;;;2.80;;
6013;SDS011;3035;49.928;8.410;2024-02-21T10:20:14;10.33;;;2.83;;
6013;SDS011;3035;49.928;8.410;2024-02-21T10:22:41;7.87;;;2.67;;
6013;SDS011;3035;49.928;8.410;2024-02-21T10:25:09;7.80;;;3.07;;
6013;SDS011;3035;49.928;8.410;2024-02-21T10:27:37;8.97;;;3.10;;
6013;SDS011;3035;49.928;8.410;2024-02-21T10:30:05;9.17;;;3.13;;
6013;SDS011;3035;49.928;8.410;2024-02-21T10:32:32;7.20;;;2.83;;
6013;SDS011;3035;49.928;8.410;2024-02-21T10:35:04;11.77;;;4.10;;
6013;SDS011;3035;49.928;8.410;2024-02-21T10:37:31;11.87;;;3.53;;
6013;SDS011;3035;49.928;8.410;2024-02-21T10:39:59;9.00;;;3.23;;
6013;SDS011;3035;49.928;8.410;2024-02-21T10:42:29;12.93;;;3.70;;
6013;SDS011;3035;49.928;8.410;2024-02-21T10:44:54;11.00;;;3.33;;
6013;SDS011;3035;49.928;8.410;2024-02-21T10:47:22;9.60;;;3.53;;
6013;SDS011;3035;49.928;8.410;2024-02-21T10:49:49;5.70;;;3.50;;
6013;SDS011;3035;49.928;8.410;2024-02-21T10:52:17;10.57;;;3.00;;
6013;SDS011;3035;49.928;8.410;2024-02-21T10:54:45;14.10;;;3.13;;
6013;SDS011;3035;49.928;8.410;2024-02-21T10:57:12;12.60;;;3.73;;
6013;SDS011;3035;49.928;8.410;2024-02-21T10:59:39;10.07;;;3.13;;
6013;SDS011;3035;49.928;8.410;2024-02-21T11:02:06;12.43;;;3.67;;
6013;SDS011;3035;49.928;8.410;2024-02-21T11:04:34;9.00;;;3.07;;
6013;SDS011;3035;49.928;8.410;2024-02-21T11:07:02;11.80;;;3.43;;
6013;SDS011;3035;49.928;8.410;2024-02-21T11:09:29;6.80;;;3.07;;
6013;SDS011;3035;49.928;8.410;2024-02-21T11:11:56;10.13;;;3.57;;
6013;SDS011;3035;49.928;8.410;2024-02-21T11:14:26;7.97;;;2.73;;
6013;SDS011;3035;49.928;8.410;2024-02-21T11:16:51;11.70;;;3.30;;
6013;SDS011;3035;49.928;8.410;2024-02-21T11:19:23;14.93;;;3.50;;
6013;SDS011;3035;49.928;8.410;2024-02-21T11:21:50;7.73;;;3.20;;
6013;SDS011;3035;49.928;8.410;2024-02-21T11:27:15;12.37;;;2.93;;
6013;SDS011;3035;49.928;8.410;2024-02-21T11:29:44;10.70;;;2.97;;
6013;SDS011;3035;49.928;8.410;2024-02-21T11:32:14;14.83;;;3.63;;
6013;SDS011;3035;49.928;8.410;2024-02-21T11:34:52;11.77;;;3.13;;
6013;SDS011;3035;49.928;8.410;2024-02-21T11:37:15;5.30;;;2.87;;
6013;SDS011;3035;49.928;8.410;2024-02-21T11:39:42;6.10;;;2.43;;
6013;SDS011;3035;49.928;8.410;2024-02-21T11:42:10;11.23;;;3.17;;
6013;SDS011;3035;49.928;8.410;2024-02-21T11:44:37;16.80;;;4.50;;
6013;SDS011;3035;49.928;8.410;2024-02-21T11:47:05;9.20;;;3.17;;
6013;SDS011;3035;49.928;8.410;2024-02-21T11:49:35;11.13;;;3.20;;
6013;SDS011;3035;49.928;8.410;2024-02-21T11:52:01;11.07;;;3.70;;
6013;SDS011;3035;49.928;8.410;2024-02-21T11:54:28;11.23;;;3.27;;
6013;SDS011;3035;49.928;8.410;2024-02-21T11:56:55;12.03;;;2.90;;
6013;SDS011;3035;49.928;8.410;2024-02-21T11:59:23;11.00;;;3.13;;
6013;SDS011;3035;49.928;8.410;2024-02-21T12:01:50;11.07;;;2.83;;
6013;SDS011;3035;49.928;8.410;2024-02-21T12:04:19;9.23;;;3.10;;
6013;SDS011;3035;49.928;8.410;2024-02-21T12:06:46;17.80;;;3.90;;
6013;SDS011;3035;49.928;8.410;2024-02-21T12:09:14;10.73;;;3.50;;
6013;SDS011;3035;49.928;8.410;2024-02-21T12:11:41;8.90;;;3.07;;
6013;SDS011;3035;49.928;8.410;2024-02-21T12:14:08;8.57;;;3.90;;
6013;SDS011;3035;49.928;8.410;2024-02-21T12:16:36;5.53;;;3.00;;
6013;SDS011;3035;49.928;8.410;2024-02-21T12:19:04;21.27;;;3.60;;
6013;SDS011;3035;49.928;8.410;2024-02-21T12:21:33;8.60;;;3.50;;
6013;SDS011;3035;49.928;8.410;2024-02-21T12:24:00;15.87;;;4.00;;
6013;SDS011;3035;49.928;8.410;2024-02-21T12:26:27;9.50;;;3.30;;
6013;SDS011;3035;49.928;8.410;2024-02-21T12:28:54;10.20;;;3.50;;
6013;SDS011;3035;49.928;8.410;2024-02-21T12:31:22;9.40;;;2.83;;
6013;SDS011;3035;49.928;8.410;2024-02-21T12:33:49;5.70;;;2.40;;
6013;SDS011;3035;49.928;8.410;2024-02-21T12:36:17;8.50;;;2.10;;
6013;SDS011;3035;49.928;8.410;2024-02-21T12:38:44;8.53;;;2.23;;
6013;SDS011;3035;49.928;8.410;2024-02-21T12:41:12;8.90;;;3.00;;
6013;SDS011;3035;49.928;8.410;2024-02-21T12:43:39;5.17;;;2.47;;
6013;SDS011;3035;49.928;8.410;2024-02-21T12:46:07;7.60;;;2.37;;
6013;SDS011;3035;49.928;8.410;2024-02-21T12:48:34;5.03;;;2.10;;
6013;SDS011;3035;49.928;8.410;2024-02-21T12:51:01;7.73;;;2.20;;
6013;SDS011;3035;49.928;8.410;2024-02-21T12:53:29;5.73;;;2.07;;
6013;SDS011;3035;49.928;8.410;2024-02-21T12:55:56;6.63;;;2.00;;
6013;SDS011;3035;49.928;8.410;2024-02-21T12:58:24;7.53;;;2.00;;
6013;SDS011;3035;49.928;8.410;2024-02-21T13:00:51;5.43;;;1.63;;
6013;SDS011;3035;49.928;8.410;2024-02-21T13:03:19;10.77;;;1.90;;
6013;SDS011;3035;49.928;8.410;2024-02-21T13:05:46;4.63;;;2.60;;
6013;SDS011;3035;49.928;8.410;2024-02-21T13:08:14;5.70;;;1.97;;
6013;SDS011;3035;49.928;8.410;2024-02-21T13:10:41;3.70;;;2.10;;
6013;SDS011;3035;49.928;8.410;2024-02-21T13:13:08;9.93;;;2.00;;
6013;SDS011;3035;49.928;8.410;2024-02-21T13:15:36;9.90;;;2.60;;
6013;SDS011;3035;49.928;8.410;2024-02-21T13:18:03;4.73;;;2.07;;
6013;SDS011;3035;49.928;8.410;2024-02-21T13:20:31;4.03;;;1.57;;
6013;SDS011;3035;49.928;8.410;2024-02-21T13:22:58;2.87;;;1.70;;
6013;SDS011;3035;49.928;8.410;2024-02-21T13:25:26;5.97;;;2.00;;
6013;SDS011;3035;49.928;8.410;2024-02-21T13:27:53;7.87;;;1.70;;
6013;SDS011;3035;49.928;8.410;2024-02-21T13:30:21;12.90;;;2.50;;
6013;SDS011;3035;49.928;8.410;2024-02-21T13:32:48;5.87;;;2.50;;
6013;SDS011;3035;49.928;8.410;2024-02-21T13:35:15;10.33;;;2.30;;
6013;SDS011;3035;49.928;8.410;2024-02-21T13:37:43;9.17;;;2.10;;
6013;SDS011;3035;49.928;8.410;2024-02-21T13:40:10;4.83;;;1.90;;
6013;SDS011;3035;49.928;8.410;2024-02-21T13:42:38;8.43;;;1.90;;
6013;SDS011;3035;49.928;8.410;2024-02-21T13:45:05;9.47;;;1.90;;
6013;SDS011;3035;49.928;8.410;2024-02-21T13:47:40;7.17;;;2.50;;
6013;SDS011;3035;49.928;8.410;2024-02-21T13:50:07;7.40;;;2.13;;
6013;SDS011;3035;49.928;8.410;2024-02-21T13:52:36;11.37;;;2.33;;
6013;SDS011;3035;49.928;8.410;2024-02-21T13:55:03;9.80;;;1.70;;
6013;SDS011;3035;49.928;8.410;2024-02-21T13:57:30;11.37;;;2.77;;
6013;SDS011;3035;49.928;8.410;2024-02-21T13:59:58;11.53;;;2.23;;
6013;SDS011;3035;49.928;8.410;2024-02-21T14:02:25;9.37;;;2.90;;
6013;SDS011;3035;49.928;8.410;2024-02-21T14:04:53;12.40;;;2.40;;
6013;SDS011;3035;49.928;8.410;2024-02-21T14:07:20;5.57;;;2.90;;
6013;SDS011;3035;49.928;8.410;2024-02-21T14:09:48;5.27;;;1.97;;
6013;SDS011;3035;49.928;8.410;2024-02-21T14:12:15;7.80;;;2.10;;
6013;SDS011;3035;49.928;8.410;2024-02-21T14:14:43;2.83;;;1.50;;
6013;SDS011;3035;49.928;8.410;2024-02-21T14:17:11;2.67;;;1.37;;
6013;SDS011;3035;49.928;8.410;2024-02-21T14:19:38;3.07;;;1.60;;
6013;SDS011;3035;49.928;8.410;2024-02-21T14:22:06;6.37;;;1.97;;
6013;SDS011;3035;49.928;8.410;2024-02-21T14:24:33;16.57;;;2.57;;
6013;SDS011;3035;49.928;8.410;2024-02-21T14:27:00;6.43;;;2.23;;
6013;SDS011;3035;49.928;8.410;2024-02-21T14:29:28;7.37;;;2.63;;
6013;SDS011;3035;49.928;8.410;2024-02-21T14:31:55;5.87;;;2.50;;
6013;SDS011;3035;49.928;8.410;2024-02-21T14:34:23;8.93;;;3.03;;
6013;SDS011;3035;49.928;8.410;2024-02-21T14:36:50;13.80;;;2.80;;
6013;SDS011;3035;49.928;8.410;2024-02-21T14:39:18;6.27;;;3.03;;
6013;SDS011;3035;49.928;8.410;2024-02-21T14:41:45;7.27;;;2.50;;
6013;SDS011;3035;49.928;8.410;2024-02-21T14:44:12;5.93;;;2.47;;
6013;SDS011;3035;49.928;8.410;2024-02-21T14:46:40;9.60;;;4.27;;
6013;SDS011;3035;49.928;8.410;2024-02-21T14:49:07;7.33;;;2.77;;
6013;SDS011;3035;49.928;8.410;2024-02-21T14:51:35;5.40;;;2.50;;
6013;SDS011;3035;49.928;8.410;2024-02-21T14:54:02;10.60;;;2.93;;
6013;SDS011;3035;49.928;8.410;2024-02-21T14:56:30;6.83;;;2.43;;
6013;SDS011;3035;49.928;8.410;2024-02-21T14:58:57;4.63;;;2.70;;
6013;SDS011;3035;49.928;8.410;2024-02-21T15:01:25;7.90;;;2.93;;
6013;SDS011;3035;49.928;8.410;2024-02-21T15:03:52;8.63;;;2.77;;
6013;SDS011;3035;49.928;8.410;2024-02-21T15:06:19;8.60;;;2.73;;
6013;SDS011;3035;49.928;8.410;2024-02-21T15:08:47;4.20;;;2.50;;
6013;SDS011;3035;49.928;8.410;2024-02-21T15:11:14;8.43;;;2.73;;